createdAt,value
2019-01-09T00:01:25.902Z,4.10
2019-01-09T00:03:54.619Z,4.20
2019-01-09T00:06:23.615Z,4.10
2019-01-09T00:08:52.273Z,4.10
2019-01-09T00:11:21.666Z,4.10
2019-01-09T00:13:51.392Z,4.10
2019-01-09T00:16:22.738Z,4.30
2019-01-09T00:18:54.494Z,4.40
2019-01-09T00:21:32.012Z,4.60
2019-01-09T00:24:00.953Z,4.80
2019-01-09T00:26:29.907Z,4.70
2019-01-09T00:29:01.299Z,4.40
2019-01-09T00:31:39.311Z,4.20
2019-01-09T00:34:08.384Z,4.00
2019-01-09T00:36:37.445Z,4.20
2019-01-09T00:39:15.575Z,4.10
2019-01-09T00:41:44.247Z,3.90
2019-01-09T00:44:13.336Z,3.80
2019-01-09T00:46:45.300Z,4.00
2019-01-09T00:49:23.385Z,4.00
2019-01-09T00:51:52.341Z,4.10
2019-01-09T00:54:24.079Z,4.00
2019-01-09T00:56:52.752Z,4.00
2019-01-09T00:59:30.424Z,4.20
2019-01-09T01:02:45.153Z,4.20
2019-01-09T01:05:46.286Z,4.10
2019-01-09T01:09:16.512Z,3.90
2019-01-09T01:12:13.662Z,3.90
2019-01-09T01:15:07.175Z,4.00
2019-01-09T01:18:27.014Z,4.10
2019-01-09T01:21:34.349Z,4.30
2019-01-09T01:24:48.553Z,4.30
2019-01-09T01:27:47.244Z,4.60
2019-01-09T01:31:03.301Z,4.50
2019-01-09T01:34:06.280Z,4.60
2019-01-09T01:37:29.710Z,4.50
2019-01-09T01:40:18.706Z,4.30
2019-01-09T01:43:34.505Z,4.20
2019-01-09T01:46:23.970Z,4.50
2019-01-09T01:49:43.672Z,4.60
2019-01-09T01:52:57.103Z,4.30
2019-01-09T01:56:09.111Z,4.20
2019-01-09T01:59:16.462Z,4.20
2019-01-09T02:02:20.818Z,4.30
2019-01-09T02:05:13.556Z,4.50
2019-01-09T02:08:18.045Z,4.70
2019-01-09T02:11:29.252Z,4.70
2019-01-09T02:14:24.035Z,4.60
2019-01-09T02:17:43.089Z,4.80
2019-01-09T02:20:22.821Z,4.40
2019-01-09T02:23:31.699Z,4.60
2019-01-09T02:26:30.985Z,4.50
2019-01-09T02:29:46.054Z,4.70
2019-01-09T02:32:29.379Z,4.70
2019-01-09T02:35:01.043Z,5.10
2019-01-09T02:37:42.412Z,5.20
2019-01-09T02:40:11.340Z,5.00
2019-01-09T02:42:40.586Z,5.00
2019-01-09T02:45:09.269Z,5.20
2019-01-09T02:47:47.261Z,4.90
2019-01-09T02:50:19.071Z,4.80
2019-01-09T02:52:47.729Z,4.60
2019-01-09T02:55:16.712Z,4.70
2019-01-09T02:57:56.881Z,4.70
2019-01-09T03:00:25.956Z,4.90
2019-01-09T03:02:54.706Z,4.80
2019-01-09T03:05:23.927Z,4.60
2019-01-09T03:08:01.788Z,4.60
2019-01-09T03:10:30.669Z,4.20
2019-01-09T03:12:59.716Z,4.30
2019-01-09T03:15:28.436Z,4.10
2019-01-09T03:18:06.263Z,4.00
2019-01-09T03:20:35.519Z,4.00
2019-01-09T03:23:04.183Z,3.90
2019-01-09T03:25:32.857Z,4.00
2019-01-09T03:28:10.463Z,4.10
2019-01-09T03:30:39.119Z,4.20
2019-01-09T03:33:11.051Z,4.20
2019-01-09T03:35:39.754Z,4.20
2019-01-09T03:38:17.590Z,4.30
2019-01-09T03:40:46.872Z,4.10
2019-01-09T03:43:15.572Z,4.00
2019-01-09T03:45:44.561Z,3.80
2019-01-09T03:48:22.454Z,4.00
2019-01-09T03:50:51.124Z,4.20
2019-01-09T03:53:19.772Z,4.00
2019-01-09T03:55:48.428Z,4.00
2019-01-09T03:58:26.206Z,3.80
2019-01-09T04:00:55.114Z,3.60
2019-01-09T04:03:24.467Z,3.80
2019-01-09T04:05:53.716Z,3.90
2019-01-09T04:08:31.317Z,3.80
2019-01-09T04:11:00.213Z,4.00
2019-01-09T04:13:30.414Z,4.00
2019-01-09T04:16:00.313Z,3.90
2019-01-09T04:18:38.437Z,3.70
2019-01-09T04:21:07.559Z,3.90
2019-01-09T04:23:36.325Z,3.90
2019-01-09T04:26:05.254Z,3.80
2019-01-09T04:28:43.062Z,4.00
2019-01-09T04:31:11.826Z,3.90
2019-01-09T04:33:40.795Z,3.90
2019-01-09T04:36:09.473Z,3.90
2019-01-09T04:38:50.166Z,3.90
2019-01-09T04:41:19.115Z,3.70
2019-01-09T04:43:48.356Z,3.90
2019-01-09T04:46:17.028Z,3.80
2019-01-09T04:48:54.887Z,4.00
2019-01-09T04:51:23.660Z,4.10
2019-01-09T04:53:52.984Z,4.00
2019-01-09T04:56:21.807Z,3.90
2019-01-09T04:58:59.589Z,4.00
2019-01-09T05:01:28.395Z,4.00
2019-01-09T05:03:57.321Z,4.20
2019-01-09T05:06:26.000Z,3.90
2019-01-09T05:09:04.379Z,4.10
2019-01-09T05:11:33.152Z,3.80
2019-01-09T05:14:01.912Z,3.90
2019-01-09T05:16:33.358Z,3.80
2019-01-09T05:19:11.064Z,3.80
2019-01-09T05:21:40.294Z,4.10
2019-01-09T05:24:10.374Z,4.30
2019-01-09T05:26:42.370Z,3.90
2019-01-09T05:29:19.895Z,3.90
2019-01-09T05:31:48.560Z,4.00
2019-01-09T05:34:17.486Z,3.80
2019-01-09T05:36:47.393Z,3.70
2019-01-09T05:39:24.959Z,3.60
2019-01-09T05:41:54.209Z,3.60
2019-01-09T05:44:22.955Z,3.70
2019-01-09T05:46:51.672Z,3.80
2019-01-09T05:49:29.288Z,3.60
2019-01-09T05:51:57.950Z,3.90
2019-01-09T05:54:26.579Z,3.80
2019-01-09T05:56:55.215Z,4.00
2019-01-09T05:59:32.736Z,4.20
2019-01-09T06:02:02.315Z,4.30
2019-01-09T06:04:31.538Z,4.40
2019-01-09T06:07:00.932Z,4.40
2019-01-09T06:12:13.783Z,4.10
2019-01-09T06:14:42.503Z,4.00
2019-01-09T06:17:11.215Z,4.00
2019-01-09T06:19:48.870Z,3.80
2019-01-09T06:22:17.652Z,4.00
2019-01-09T06:24:48.696Z,3.90
2019-01-09T06:27:17.896Z,4.00
2019-01-09T06:29:55.844Z,4.00
2019-01-09T06:32:27.666Z,4.10
2019-01-09T06:34:56.585Z,4.00
2019-01-09T06:37:27.593Z,4.10
2019-01-09T06:39:56.007Z,4.00
2019-01-09T06:42:27.545Z,4.20
2019-01-09T06:44:56.465Z,4.00
2019-01-09T06:47:25.308Z,4.20
2019-01-09T06:52:39.290Z,4.10
2019-01-09T06:55:09.829Z,4.00
2019-01-09T06:57:38.578Z,3.90
2019-01-09T07:00:16.687Z,3.90
2019-01-09T07:02:47.258Z,4.10
2019-01-09T07:05:20.263Z,4.30
2019-01-09T07:07:49.168Z,4.30
2019-01-09T07:10:27.141Z,4.30
2019-01-09T07:12:56.077Z,4.20
2019-01-09T07:15:25.163Z,4.00
2019-01-09T07:17:56.013Z,3.90
2019-01-09T07:20:24.832Z,3.90
2019-01-09T07:22:53.650Z,3.90
2019-01-09T07:25:22.454Z,3.90
2019-01-09T07:27:51.111Z,3.90
2019-01-09T07:30:28.888Z,4.00
2019-01-09T07:32:57.596Z,3.90
2019-01-09T07:35:26.269Z,4.00
2019-01-09T07:37:54.977Z,4.00
2019-01-09T07:40:32.821Z,4.10
2019-01-09T07:43:01.520Z,4.00
2019-01-09T07:45:30.319Z,4.00
2019-01-09T07:47:59.255Z,4.20
2019-01-09T07:53:10.926Z,4.60
2019-01-09T07:55:40.129Z,4.20
2019-01-09T07:58:09.121Z,4.20
2019-01-09T08:00:47.268Z,4.10
2019-01-09T08:03:19.390Z,3.90
2019-01-09T08:05:48.051Z,3.70
2019-01-09T08:08:32.429Z,3.70
2019-01-09T08:11:04.176Z,3.90
2019-01-09T08:13:33.347Z,4.00
2019-01-09T08:16:02.316Z,4.00
2019-01-09T08:18:42.997Z,3.80
2019-01-09T08:21:11.924Z,4.00
2019-01-09T08:23:40.984Z,3.80
2019-01-09T08:26:09.676Z,4.00
2019-01-09T08:28:47.312Z,3.80
2019-01-09T08:31:16.629Z,3.90
2019-01-09T08:33:45.456Z,3.70
2019-01-09T08:36:14.096Z,3.90
2019-01-09T08:38:52.433Z,4.00
2019-01-09T08:41:21.312Z,4.20
2019-01-09T08:43:49.986Z,4.10
2019-01-09T08:46:18.909Z,4.10
2019-01-09T08:48:47.723Z,4.00
2019-01-09T08:51:16.506Z,3.60
2019-01-09T08:53:45.212Z,3.90
2019-01-09T08:56:14.164Z,3.80
2019-01-09T09:01:26.257Z,4.10
2019-01-09T09:03:57.809Z,4.40
2019-01-09T09:06:26.511Z,4.40
2019-01-09T09:09:05.894Z,4.60
2019-01-09T09:11:34.626Z,4.90
2019-01-09T09:14:03.632Z,5.00
2019-01-09T09:16:36.850Z,5.10
2019-01-09T09:19:12.106Z,4.90
2019-01-09T09:21:40.857Z,4.80
2019-01-09T09:24:09.874Z,4.40
2019-01-09T09:26:47.816Z,4.60
2019-01-09T09:29:16.530Z,4.70
2019-01-09T09:31:45.180Z,5.00
2019-01-09T09:34:14.415Z,5.40
2019-01-09T09:36:54.263Z,5.30
2019-01-09T09:39:26.051Z,5.00
2019-01-09T09:41:56.781Z,5.00
2019-01-09T09:44:25.464Z,5.30
2019-01-09T09:47:03.378Z,5.40
2019-01-09T09:49:34.667Z,5.20
2019-01-09T09:52:03.338Z,5.40
2019-01-09T09:54:33.692Z,5.50
2019-01-09T09:57:11.398Z,5.30
2019-01-09T09:59:40.056Z,5.60
2019-01-09T10:02:09.479Z,5.50
2019-01-09T10:04:40.165Z,5.60
2019-01-09T10:07:18.401Z,5.70
2019-01-09T10:09:47.169Z,5.60
2019-01-09T10:12:15.953Z,5.70
2019-01-09T10:14:44.724Z,5.40
2019-01-09T10:17:13.445Z,5.50
2019-01-09T10:19:42.373Z,5.70
2019-01-09T10:22:11.122Z,5.60
2019-01-09T10:24:42.906Z,5.40
2019-01-09T10:27:20.988Z,5.20
2019-01-09T10:29:49.921Z,4.90
2019-01-09T10:32:18.677Z,4.60
2019-01-09T10:34:47.870Z,4.40
2019-01-09T10:37:25.651Z,4.90
2019-01-09T10:39:57.449Z,4.80
2019-01-09T10:42:26.106Z,4.70
2019-01-09T10:44:54.975Z,5.10
2019-01-09T10:47:32.615Z,5.20
2019-01-09T10:50:04.321Z,5.10
2019-01-09T10:52:33.293Z,4.90
2019-01-09T10:55:05.067Z,4.90
2019-01-09T10:57:43.832Z,4.90
2019-01-09T11:00:23.907Z,5.00
2019-01-09T11:02:53.034Z,5.10
2019-01-09T11:05:37.912Z,5.20
2019-01-09T11:08:06.847Z,5.10
2019-01-09T11:10:35.512Z,5.40
2019-01-09T11:13:04.185Z,5.60
2019-01-09T11:15:41.866Z,5.80
2019-01-09T11:18:10.830Z,5.80
2019-01-09T11:20:41.401Z,6.10
2019-01-09T11:23:10.355Z,5.90
2019-01-09T11:25:48.291Z,5.90
2019-01-09T11:28:19.133Z,5.70
2019-01-09T11:30:47.809Z,5.80
2019-01-09T11:33:16.457Z,6.10
2019-01-09T11:35:56.759Z,5.60
2019-01-09T11:38:25.428Z,5.40
2019-01-09T11:40:55.658Z,5.20
2019-01-09T11:43:24.737Z,5.10
2019-01-09T11:46:03.636Z,5.20
2019-01-09T11:48:35.407Z,4.90
2019-01-09T11:51:04.069Z,5.00
2019-01-09T11:53:32.741Z,5.20
2019-01-09T11:58:44.799Z,5.20
2019-01-09T12:01:13.755Z,5.40
2019-01-09T12:03:42.443Z,5.20
2019-01-09T12:06:20.212Z,5.20
2019-01-09T12:08:49.396Z,5.20
2019-01-09T12:11:18.249Z,5.40
2019-01-09T12:13:47.234Z,5.40
2019-01-09T12:16:25.142Z,5.50
2019-01-09T12:18:54.049Z,5.30
2019-01-09T12:21:23.053Z,5.50
2019-01-09T12:23:51.703Z,5.40
2019-01-09T12:26:30.355Z,5.40
2019-01-09T12:28:59.227Z,5.40
2019-01-09T12:31:27.914Z,5.60
2019-01-09T12:33:56.860Z,5.40
2019-01-09T12:36:34.831Z,5.40
2019-01-09T12:39:13.040Z,5.50
2019-01-09T12:41:35.021Z,5.30
2019-01-09T12:44:03.730Z,5.40
2019-01-09T12:46:41.889Z,5.30
2019-01-09T12:49:10.703Z,5.40
2019-01-09T12:51:39.361Z,5.40
2019-01-09T12:54:08.555Z,5.20
2019-01-09T12:56:48.808Z,5.00
2019-01-09T12:59:21.880Z,4.80
2019-01-09T13:01:49.043Z,4.80
2019-01-09T13:04:19.280Z,4.80
2019-01-09T13:06:57.164Z,4.70
2019-01-09T13:09:26.159Z,4.50
2019-01-09T13:11:57.403Z,4.50
2019-01-09T13:14:26.619Z,4.40
2019-01-09T13:16:55.659Z,4.40
2019-01-09T13:19:24.387Z,4.60
2019-01-09T13:21:53.297Z,4.70
2019-01-09T13:24:24.710Z,4.60
2019-01-09T13:29:39.356Z,4.20
2019-01-09T13:32:08.119Z,3.90
2019-01-09T13:34:36.766Z,4.30
2019-01-09T13:37:14.623Z,4.30
2019-01-09T13:39:43.261Z,4.50
2019-01-09T13:42:11.934Z,4.50
2019-01-09T13:44:40.718Z,4.60
2019-01-09T13:47:18.786Z,4.60
2019-01-09T13:49:49.863Z,4.80
2019-01-09T13:52:18.807Z,4.40
2019-01-09T13:54:47.702Z,4.30
2019-01-09T13:57:25.331Z,4.40
2019-01-09T13:59:54.451Z,3.90
2019-01-09T14:02:25.726Z,3.90
2019-01-09T14:04:57.887Z,4.00
2019-01-09T14:10:12.484Z,4.10
2019-01-09T14:12:41.717Z,3.80
2019-01-09T14:15:12.411Z,3.90
2019-01-09T14:17:50.214Z,3.80
2019-01-09T14:20:19.034Z,4.10
2019-01-09T14:22:48.032Z,3.80
2019-01-09T14:25:16.931Z,3.70
2019-01-09T14:27:55.862Z,3.70
2019-01-09T14:30:26.850Z,4.10
2019-01-09T14:32:55.539Z,4.30
2019-01-09T14:35:27.384Z,4.00
2019-01-09T14:38:05.172Z,3.60
2019-01-09T14:40:33.858Z,3.40
2019-01-09T14:43:04.398Z,3.50
2019-01-09T14:45:33.299Z,3.50
2019-01-09T14:48:11.258Z,3.50
2019-01-09T14:50:40.167Z,3.40
2019-01-09T14:53:09.070Z,3.50
2019-01-09T14:55:38.740Z,3.40
2019-01-09T14:58:16.720Z,3.40
2019-01-09T15:00:45.469Z,3.30
2019-01-09T15:03:14.449Z,3.20
2019-01-09T15:05:43.403Z,3.50
2019-01-09T15:08:21.198Z,3.50
2019-01-09T15:10:49.853Z,3.40
2019-01-09T15:13:18.549Z,3.40
2019-01-09T15:15:48.458Z,3.20
2019-01-09T15:18:26.567Z,3.30
2019-01-09T15:20:58.047Z,3.60
2019-01-09T15:23:28.490Z,3.70
2019-01-09T15:25:57.409Z,3.70
2019-01-09T15:31:09.927Z,3.50
2019-01-09T15:33:41.591Z,3.60
2019-01-09T15:36:28.274Z,3.70
2019-01-09T15:38:57.198Z,3.60
2019-01-09T15:41:26.156Z,3.70
2019-01-09T15:43:55.412Z,3.60
2019-01-09T15:46:33.260Z,3.50
2019-01-09T15:49:04.185Z,3.20
2019-01-09T15:51:32.833Z,3.30
2019-01-09T15:54:01.552Z,3.20
2019-01-09T15:56:42.476Z,3.20
2019-01-09T15:59:11.454Z,3.10
2019-01-09T16:01:42.945Z,3.00
2019-01-09T16:04:11.668Z,3.10
2019-01-09T16:06:50.454Z,3.20
2019-01-09T16:09:19.220Z,3.20
2019-01-09T16:11:48.178Z,3.20
2019-01-09T16:14:18.502Z,3.10
2019-01-09T16:19:31.680Z,3.30
2019-01-09T16:22:00.842Z,3.30
2019-01-09T16:24:30.733Z,3.40
2019-01-09T16:27:08.346Z,3.20
2019-01-09T16:29:37.054Z,3.00
2019-01-09T16:32:06.193Z,3.10
2019-01-09T16:34:34.933Z,3.40
2019-01-09T16:37:12.959Z,3.50
2019-01-09T16:39:42.120Z,3.60
2019-01-09T16:42:10.803Z,3.10
2019-01-09T16:44:42.429Z,3.20
2019-01-09T16:47:20.710Z,3.40
2019-01-09T16:49:49.768Z,3.40
2019-01-09T16:52:18.517Z,3.40
2019-01-09T16:54:47.560Z,3.30
2019-01-09T16:57:25.708Z,3.10
2019-01-09T16:59:54.750Z,2.90
2019-01-09T17:02:26.548Z,3.10
2019-01-09T17:04:58.706Z,3.40
2019-01-09T17:07:36.646Z,3.10
2019-01-09T17:10:06.228Z,3.30
2019-01-09T17:12:34.926Z,3.20
2019-01-09T17:15:03.805Z,3.30
2019-01-09T17:20:20.806Z,3.10
2019-01-09T17:22:49.814Z,2.90
2019-01-09T17:25:18.627Z,2.90
2019-01-09T17:27:56.553Z,3.00
2019-01-09T17:30:26.806Z,3.40
2019-01-09T17:32:58.558Z,3.50
2019-01-09T17:35:27.561Z,3.20
2019-01-09T17:38:05.498Z,3.10
2019-01-09T17:40:40.879Z,3.20
2019-01-09T17:43:05.275Z,3.20
2019-01-09T17:45:34.208Z,2.90
2019-01-09T17:48:12.107Z,3.10
2019-01-09T17:50:41.392Z,2.90
2019-01-09T17:53:10.390Z,2.80
2019-01-09T17:55:39.211Z,3.00
2019-01-09T17:58:16.945Z,3.20
2019-01-09T18:00:46.099Z,3.20
2019-01-09T18:03:15.220Z,3.20
2019-01-09T18:05:43.943Z,3.20
2019-01-09T18:08:23.472Z,3.30
2019-01-09T18:10:54.427Z,3.40
2019-01-09T18:13:24.491Z,3.30
2019-01-09T18:15:53.340Z,3.30
2019-01-09T18:21:12.145Z,3.60
2019-01-09T18:23:41.052Z,3.60
2019-01-09T18:26:10.186Z,3.10
2019-01-09T18:28:49.299Z,3.40
2019-01-09T18:32:26.294Z,3.60
2019-01-09T18:35:24.436Z,3.70
2019-01-09T18:38:46.960Z,3.70
2019-01-09T18:41:59.606Z,3.30
2019-01-09T18:45:04.693Z,3.40
2019-01-09T18:48:11.173Z,3.10
2019-01-09T18:51:27.186Z,3.20
2019-01-09T18:53:55.979Z,3.40
2019-01-09T18:56:27.220Z,3.50
2019-01-09T18:59:05.207Z,3.20
2019-01-09T19:01:33.920Z,3.20
2019-01-09T19:04:03.770Z,3.10
2019-01-09T19:06:35.410Z,3.10
2019-01-09T19:09:12.680Z,2.90
2019-01-09T19:11:50.296Z,3.00
2019-01-09T19:14:13.035Z,3.30
2019-01-09T19:16:41.946Z,3.20
2019-01-09T19:19:13.843Z,2.90
2019-01-09T19:21:42.916Z,3.00
2019-01-09T19:24:11.619Z,3.10
2019-01-09T19:26:40.407Z,3.10
2019-01-09T19:29:19.400Z,3.20
2019-01-09T19:31:48.116Z,3.20
2019-01-09T19:34:19.909Z,3.00
2019-01-09T19:36:49.129Z,3.10
2019-01-09T19:42:04.328Z,3.10
2019-01-09T19:44:33.391Z,3.30
2019-01-09T19:47:02.338Z,3.20
2019-01-09T19:49:54.071Z,3.20
2019-01-09T19:52:24.924Z,3.20
2019-01-09T19:54:53.691Z,3.10
2019-01-09T19:57:24.889Z,3.30
2019-01-09T19:59:53.715Z,3.30
2019-01-09T20:02:22.980Z,3.40
2019-01-09T20:04:51.712Z,3.50
2019-01-09T20:07:20.752Z,3.30
2019-01-09T20:09:59.107Z,3.60
2019-01-09T20:12:27.916Z,3.50
2019-01-09T20:14:56.599Z,3.80
2019-01-09T20:17:25.792Z,3.70
2019-01-09T20:20:17.328Z,3.90
2019-01-09T20:22:48.590Z,3.70
2019-01-09T20:25:17.856Z,3.40
2019-01-09T20:30:33.323Z,3.30
2019-01-09T20:33:04.016Z,3.20
2019-01-09T20:35:32.898Z,3.20
2019-01-09T20:38:10.943Z,3.30
2019-01-09T20:40:42.570Z,3.20
2019-01-09T20:43:11.226Z,3.20
2019-01-09T20:45:40.154Z,3.20
2019-01-09T20:48:19.667Z,3.30
2019-01-09T20:50:48.664Z,3.10
2019-01-09T20:53:20.681Z,3.20
2019-01-09T20:55:49.549Z,3.20
2019-01-09T20:58:21.322Z,3.00
2019-01-09T21:00:50.263Z,3.00
2019-01-09T21:03:19.014Z,3.20
2019-01-09T21:05:49.828Z,3.30
2019-01-09T21:08:27.763Z,3.20
2019-01-09T21:10:56.523Z,3.40
2019-01-09T21:13:25.304Z,3.70
2019-01-09T21:15:54.316Z,4.00
2019-01-09T21:18:35.335Z,4.00
2019-01-09T21:21:06.018Z,3.60
2019-01-09T21:23:34.964Z,3.50
2019-01-09T21:26:03.671Z,3.40
2019-01-09T21:28:41.745Z,3.30
2019-01-09T21:31:12.625Z,3.10
2019-01-09T21:33:41.332Z,3.20
2019-01-09T21:36:10.405Z,3.30
2019-01-09T21:38:48.298Z,3.40
2019-01-09T21:41:16.985Z,3.70
2019-01-09T21:43:45.731Z,3.70
2019-01-09T21:46:14.379Z,3.50
2019-01-09T21:48:52.286Z,3.60
2019-01-09T21:51:21.040Z,3.40
2019-01-09T21:53:50.785Z,3.30
2019-01-09T21:56:19.409Z,3.50
2019-01-09T21:58:57.223Z,3.30
2019-01-09T22:01:25.947Z,3.50
2019-01-09T22:03:57.025Z,3.70
2019-01-09T22:06:25.745Z,3.70
2019-01-09T22:09:05.483Z,3.70
2019-01-09T22:11:34.370Z,4.00
2019-01-09T22:14:03.473Z,4.00
2019-01-09T22:16:38.593Z,3.90
2019-01-09T22:19:17.297Z,4.00
2019-01-09T22:21:46.059Z,3.70
2019-01-09T22:24:14.726Z,3.80
2019-01-09T22:26:43.392Z,3.90
2019-01-09T22:29:20.892Z,3.90
2019-01-09T22:31:49.725Z,3.80
2019-01-09T22:34:21.613Z,3.80
2019-01-09T22:36:50.309Z,3.90
2019-01-09T22:39:28.108Z,3.80
2019-01-09T22:44:31.008Z,3.70
2019-01-09T22:46:59.656Z,3.70
2019-01-09T22:49:37.534Z,3.80
2019-01-09T22:52:06.248Z,3.80
2019-01-09T22:54:36.531Z,3.60
2019-01-09T22:57:05.323Z,3.70
2019-01-09T22:59:42.940Z,3.60
2019-01-09T23:02:12.353Z,3.80
2019-01-09T23:04:40.995Z,3.80
2019-01-09T23:07:09.992Z,3.70
2019-01-09T23:09:49.113Z,3.60
2019-01-09T23:12:21.501Z,3.70
2019-01-09T23:14:48.667Z,3.60
2019-01-09T23:17:17.584Z,3.50
2019-01-09T23:19:55.385Z,3.20
2019-01-09T23:22:26.376Z,3.20
2019-01-09T23:24:55.157Z,3.50
2019-01-09T23:27:26.561Z,3.50
2019-01-09T23:30:04.718Z,3.40
2019-01-09T23:32:33.463Z,3.50
2019-01-09T23:35:05.132Z,3.60
2019-01-09T23:37:33.893Z,3.60
2019-01-09T23:40:11.529Z,3.70
2019-01-09T23:42:40.226Z,3.70
2019-01-09T23:45:10.534Z,3.70
2019-01-09T23:47:39.333Z,3.60
2019-01-09T23:50:18.831Z,3.70
2019-01-09T23:52:50.796Z,3.90
2019-01-09T23:55:19.454Z,3.70
2019-01-09T23:57:51.240Z,3.70
